createdAt,value
2023-03-11T00:03:01.361Z,47.29
2023-03-11T00:06:04.088Z,47.26
2023-03-11T00:09:06.370Z,47.24
2023-03-11T00:12:08.612Z,47.24
2023-03-11T00:15:11.380Z,47.26
2023-03-11T00:18:13.535Z,47.27
2023-03-11T00:21:17.665Z,47.28
2023-03-11T00:24:19.767Z,47.23
2023-03-11T00:27:21.845Z,47.25
2023-03-11T00:30:25.516Z,47.27
2023-03-11T00:33:27.630Z,47.28
2023-03-11T00:36:32.089Z,47.29
2023-03-11T00:39:34.643Z,47.25
2023-03-11T00:42:36.752Z,47.24
2023-03-11T00:45:39.061Z,47.25
2023-03-11T00:48:41.352Z,47.28
2023-03-11T00:51:44.809Z,47.26
2023-03-11T00:54:46.897Z,47.25
2023-03-11T00:57:53.270Z,47.25
2023-03-11T01:00:55.332Z,47.23
2023-03-11T01:03:57.411Z,47.23
2023-03-11T01:06:59.492Z,47.22
2023-03-11T01:10:02.115Z,47.21
2023-03-11T01:13:04.943Z,47.23
2023-03-11T01:16:09.250Z,47.23
2023-03-11T01:19:11.464Z,47.23
2023-03-11T01:22:13.662Z,47.24
2023-03-11T01:25:17.496Z,47.24
2023-03-11T01:28:19.621Z,47.28
2023-03-11T01:31:21.779Z,47.23
2023-03-11T01:34:23.897Z,47.24
2023-03-11T01:37:26.096Z,47.25
2023-03-11T01:40:30.916Z,47.26
2023-03-11T01:43:44.906Z,47.28
2023-03-11T01:46:52.997Z,47.27
2023-03-11T01:49:55.249Z,47.27
2023-03-11T01:52:57.345Z,47.26
2023-03-11T01:56:01.348Z,47.20
2023-03-11T01:59:03.753Z,47.24
2023-03-11T02:02:18.383Z,47.23
2023-03-11T02:05:22.484Z,47.23
2023-03-11T02:08:24.620Z,47.26
2023-03-11T02:11:29.747Z,47.25
2023-03-11T02:14:32.381Z,47.27
2023-03-11T02:17:36.497Z,47.28
2023-03-11T02:20:42.466Z,47.27
2023-03-11T02:24:08.959Z,47.28
2023-03-11T02:27:14.399Z,47.28
2023-03-11T02:30:17.878Z,47.30
2023-03-11T02:33:20.770Z,47.31
2023-03-11T02:36:37.627Z,47.29
2023-03-11T02:39:42.590Z,47.31
2023-03-11T02:42:44.725Z,47.30
2023-03-11T02:45:48.062Z,47.28
2023-03-11T02:48:50.832Z,47.33
2023-03-11T02:51:52.980Z,47.37
2023-03-11T02:54:55.072Z,47.36
2023-03-11T02:57:57.265Z,47.36
2023-03-11T03:00:59.504Z,47.38
2023-03-11T03:04:01.681Z,47.36
2023-03-11T03:07:03.917Z,47.35
2023-03-11T03:10:07.572Z,47.37
2023-03-11T03:13:09.717Z,47.35
2023-03-11T03:16:12.081Z,47.36
2023-03-11T03:19:14.155Z,47.32
2023-03-11T03:22:16.266Z,47.34
2023-03-11T03:25:18.621Z,47.31
2023-03-11T03:28:20.695Z,47.31
2023-03-11T03:31:22.967Z,47.31
2023-03-11T03:34:25.200Z,47.30
2023-03-11T03:37:32.652Z,47.28
2023-03-11T03:40:35.032Z,47.28
2023-03-11T03:43:37.056Z,47.31
2023-03-11T03:46:39.508Z,47.28
2023-03-11T03:49:41.556Z,47.25
2023-03-11T03:52:43.559Z,47.30
2023-03-11T03:55:45.730Z,47.28
2023-03-11T03:58:47.750Z,47.25
2023-03-11T04:01:49.874Z,47.28
2023-03-11T04:04:52.024Z,47.27
2023-03-11T04:07:54.743Z,47.29
2023-03-11T04:10:57.472Z,47.29
2023-03-11T04:13:59.554Z,47.29
2023-03-11T04:17:01.635Z,47.28
2023-03-11T04:20:07.134Z,47.30
2023-03-11T04:23:09.250Z,47.29
2023-03-11T04:26:11.323Z,47.28
2023-03-11T04:29:13.476Z,47.31
2023-03-11T04:32:15.559Z,47.25
2023-03-11T04:35:17.760Z,47.28
2023-03-11T04:38:19.909Z,47.28
2023-03-11T04:41:21.993Z,47.25
2023-03-11T04:44:24.042Z,47.29
2023-03-11T04:47:26.064Z,47.34
2023-03-11T04:50:28.108Z,47.33
2023-03-11T04:53:30.174Z,47.29
2023-03-11T04:56:32.227Z,47.28
2023-03-11T04:59:34.273Z,47.29
2023-03-11T05:02:36.522Z,47.29
2023-03-11T05:05:38.594Z,47.27
2023-03-11T05:08:41.994Z,47.25
2023-03-11T05:11:44.073Z,47.27
2023-03-11T05:14:46.122Z,47.25
2023-03-11T05:17:48.227Z,47.26
2023-03-11T05:20:50.252Z,47.24
2023-03-11T05:23:52.304Z,47.24
2023-03-11T05:26:54.405Z,47.22
2023-03-11T05:29:56.455Z,47.22
2023-03-11T05:32:58.549Z,47.25
2023-03-11T05:36:05.714Z,47.25
2023-03-11T05:39:08.160Z,47.25
2023-03-11T05:42:10.271Z,47.24
2023-03-11T05:45:12.432Z,47.22
2023-03-11T05:48:14.422Z,47.23
2023-03-11T05:51:16.492Z,47.22
2023-03-11T05:54:18.617Z,47.16
2023-03-11T05:57:20.773Z,46.94
2023-03-11T06:00:23.470Z,46.63
2023-03-11T06:03:25.571Z,46.44
2023-03-11T06:06:28.110Z,46.28
2023-03-11T06:09:30.368Z,46.12
2023-03-11T06:12:35.216Z,45.87
2023-03-11T06:15:37.946Z,45.59
2023-03-11T06:18:40.062Z,45.35
2023-03-11T06:21:42.145Z,45.06
2023-03-11T06:24:44.205Z,44.87
2023-03-11T06:27:53.416Z,44.88
2023-03-11T06:30:59.333Z,44.88
2023-03-11T06:34:01.467Z,44.71
2023-03-11T06:37:03.704Z,44.64
2023-03-11T06:40:09.833Z,44.89
2023-03-11T06:43:11.846Z,44.96
2023-03-11T06:46:20.371Z,44.86
2023-03-11T06:49:22.461Z,44.97
2023-03-11T06:52:24.490Z,45.00
2023-03-11T06:55:26.598Z,45.13
2023-03-11T06:58:29.445Z,45.15
2023-03-11T07:01:31.609Z,45.01
2023-03-11T07:04:34.340Z,44.96
2023-03-11T07:07:36.418Z,44.94
2023-03-11T07:10:38.557Z,45.06
2023-03-11T07:13:40.714Z,45.10
2023-03-11T07:16:42.919Z,45.15
2023-03-11T07:19:44.984Z,45.32
2023-03-11T07:22:47.040Z,45.34
2023-03-11T07:25:49.485Z,45.43
2023-03-11T07:28:53.356Z,45.39
2023-03-11T07:31:55.421Z,45.17
2023-03-11T07:34:57.474Z,45.13
2023-03-11T07:37:59.508Z,45.10
2023-03-11T07:41:01.873Z,45.24
2023-03-11T07:44:04.831Z,45.29
2023-03-11T07:47:07.220Z,45.36
2023-03-11T07:50:09.852Z,45.28
2023-03-11T07:53:11.887Z,45.13
2023-03-11T07:56:15.748Z,45.28
2023-03-11T07:59:17.835Z,45.39
2023-03-11T08:02:20.022Z,45.38
2023-03-11T08:05:22.117Z,45.23
2023-03-11T08:08:24.203Z,44.96
2023-03-11T08:11:26.406Z,44.79
2023-03-11T08:14:28.687Z,44.58
2023-03-11T08:17:30.836Z,44.50
2023-03-11T08:20:32.927Z,44.53
2023-03-11T08:23:35.301Z,44.41
2023-03-11T08:26:37.314Z,44.09
2023-03-11T08:29:39.333Z,43.80
2023-03-11T08:32:41.403Z,43.71
2023-03-11T08:35:43.524Z,43.45
2023-03-11T08:38:46.307Z,43.19
2023-03-11T08:41:48.364Z,43.42
2023-03-11T08:44:50.518Z,43.69
2023-03-11T08:47:52.534Z,43.86
2023-03-11T08:50:54.910Z,43.26
2023-03-11T08:53:57.049Z,43.48
2023-03-11T08:57:02.873Z,43.27
2023-03-11T09:00:07.327Z,42.84
2023-03-11T09:03:10.034Z,42.67
2023-03-11T09:06:15.286Z,42.27
2023-03-11T09:09:20.327Z,42.64
2023-03-11T09:12:22.454Z,42.32
2023-03-11T09:15:24.724Z,42.33
2023-03-11T09:18:27.326Z,41.97
2023-03-11T09:21:29.532Z,41.09
2023-03-11T09:24:35.789Z,40.71
2023-03-11T09:27:37.966Z,40.97
2023-03-11T09:30:40.111Z,40.81
2023-03-11T09:33:43.086Z,40.85
2023-03-11T09:36:45.929Z,40.37
2023-03-11T09:39:48.930Z,39.52
2023-03-11T09:42:53.734Z,38.51
2023-03-11T09:46:24.296Z,37.93
2023-03-11T09:49:45.100Z,37.75
2023-03-11T09:52:57.619Z,37.66
2023-03-11T09:56:03.101Z,37.25
2023-03-11T09:59:31.496Z,37.14
2023-03-11T10:02:37.535Z,37.01
2023-03-11T10:05:41.062Z,36.61
2023-03-11T10:09:17.360Z,36.56
2023-03-11T10:12:57.103Z,36.76
2023-03-11T10:16:21.871Z,36.66
2023-03-11T10:19:30.183Z,36.29
2023-03-11T10:22:54.518Z,35.67
2023-03-11T10:26:13.611Z,35.85
2023-03-11T10:29:30.934Z,35.45
2023-03-11T10:32:46.332Z,35.18
2023-03-11T10:35:54.112Z,35.06
2023-03-11T10:38:56.819Z,33.21
2023-03-11T10:42:09.945Z,28.26
2023-03-11T10:45:14.171Z,29.71
2023-03-11T10:48:18.612Z,28.04
2023-03-11T10:51:23.121Z,30.17
2023-03-11T10:54:33.438Z,31.26
2023-03-11T10:57:38.748Z,31.72
2023-03-11T11:00:41.063Z,32.33
2023-03-11T11:03:45.878Z,32.61
2023-03-11T11:06:47.901Z,32.67
2023-03-11T11:10:20.928Z,33.00
2023-03-11T11:13:25.655Z,32.10
2023-03-11T11:16:29.112Z,32.01
2023-03-11T11:19:32.032Z,31.91
2023-03-11T11:22:34.083Z,32.13
2023-03-11T11:25:38.590Z,32.64
2023-03-11T11:28:40.654Z,33.12
2023-03-11T11:31:45.388Z,33.57
2023-03-11T11:34:55.047Z,33.61
2023-03-11T11:38:02.204Z,33.79
2023-03-11T11:41:05.521Z,34.15
2023-03-11T11:44:12.143Z,34.15
2023-03-11T11:47:18.860Z,34.06
2023-03-11T11:50:26.698Z,33.98
2023-03-11T11:53:43.165Z,34.11
2023-03-11T11:56:46.544Z,34.53
2023-03-11T11:59:49.128Z,35.07
2023-03-11T12:03:10.421Z,35.27
2023-03-11T12:06:25.498Z,34.98
2023-03-11T12:09:38.639Z,32.91
2023-03-11T12:13:21.437Z,31.73
2023-03-11T12:16:57.261Z,31.22
2023-03-11T12:20:30.869Z,30.29
2023-03-11T12:24:09.796Z,29.62
2023-03-11T12:27:34.233Z,30.45
2023-03-11T12:30:41.650Z,30.39
2023-03-11T12:33:51.330Z,30.66
2023-03-11T12:36:55.602Z,30.50
2023-03-11T12:39:57.851Z,31.06
2023-03-11T12:43:00.235Z,30.00
2023-03-11T12:46:04.955Z,30.77
2023-03-11T12:49:12.158Z,31.33
2023-03-11T12:52:14.356Z,30.54
2023-03-11T12:55:19.697Z,30.24
2023-03-11T12:58:53.238Z,30.39
2023-03-11T13:02:22.830Z,30.54
2023-03-11T13:05:36.985Z,30.75
2023-03-11T13:08:52.088Z,30.93
2023-03-11T13:11:54.500Z,31.09
2023-03-11T13:15:18.521Z,30.91
2023-03-11T13:18:30.494Z,31.66
2023-03-11T13:21:41.887Z,32.27
2023-03-11T13:24:50.792Z,32.65
2023-03-11T13:28:01.277Z,32.93
2023-03-11T13:31:29.494Z,33.60
2023-03-11T13:34:49.698Z,33.91
2023-03-11T13:38:10.674Z,34.15
2023-03-11T13:41:22.319Z,34.37
2023-03-11T13:44:24.456Z,34.62
2023-03-11T13:47:28.917Z,34.91
2023-03-11T13:50:40.415Z,35.08
2023-03-11T13:53:53.436Z,35.21
2023-03-11T13:56:59.823Z,35.38
2023-03-11T14:00:18.193Z,35.56
2023-03-11T14:03:23.848Z,35.61
2023-03-11T14:06:31.227Z,35.73
2023-03-11T14:09:33.815Z,35.82
2023-03-11T14:12:36.030Z,35.85
2023-03-11T14:15:45.420Z,36.20
2023-03-11T14:19:00.825Z,36.63
2023-03-11T14:22:07.511Z,36.58
2023-03-11T14:25:14.900Z,36.95
2023-03-11T14:28:21.520Z,37.03
2023-03-11T14:31:38.417Z,36.95
2023-03-11T14:34:41.042Z,37.09
2023-03-11T14:37:43.883Z,37.14
2023-03-11T14:40:51.335Z,37.04
2023-03-11T14:43:54.734Z,36.98
2023-03-11T14:47:09.925Z,36.99
2023-03-11T14:50:21.156Z,37.18
2023-03-11T14:53:35.764Z,37.54
2023-03-11T14:56:41.443Z,37.92
2023-03-11T14:59:44.944Z,38.12
2023-03-11T15:03:14.099Z,38.24
2023-03-11T15:06:23.194Z,38.19
2023-03-11T15:09:26.734Z,38.34
2023-03-11T15:12:39.771Z,38.04
2023-03-11T15:15:42.425Z,38.28
2023-03-11T15:18:44.484Z,38.49
2023-03-11T15:21:48.105Z,38.75
2023-03-11T15:24:58.428Z,39.09
2023-03-11T15:28:29.961Z,39.28
2023-03-11T15:31:37.470Z,39.40
2023-03-11T15:34:39.718Z,39.50
2023-03-11T15:37:43.073Z,39.53
2023-03-11T15:41:11.581Z,39.58
2023-03-11T15:44:40.931Z,39.69
2023-03-11T15:47:44.053Z,39.68
2023-03-11T15:50:53.501Z,39.74
2023-03-11T15:53:56.369Z,39.53
2023-03-11T15:57:02.274Z,39.78
2023-03-11T16:00:05.492Z,39.59
2023-03-11T16:03:07.715Z,39.78
2023-03-11T16:06:09.874Z,39.71
2023-03-11T16:09:12.858Z,39.68
2023-03-11T16:12:20.339Z,39.85
2023-03-11T16:15:28.495Z,39.83
2023-03-11T16:18:30.842Z,39.82
2023-03-11T16:21:41.351Z,39.82
2023-03-11T16:24:44.195Z,39.80
2023-03-11T16:27:46.409Z,39.85
2023-03-11T16:30:51.007Z,39.87
2023-03-11T16:33:53.186Z,39.87
2023-03-11T16:36:55.244Z,39.98
2023-03-11T16:39:58.371Z,39.99
2023-03-11T16:43:03.495Z,40.00
2023-03-11T16:46:05.927Z,40.06
2023-03-11T16:49:08.014Z,40.13
2023-03-11T16:52:10.281Z,40.18
2023-03-11T16:55:12.443Z,40.23
2023-03-11T16:58:15.470Z,40.18
2023-03-11T17:01:19.208Z,40.23
2023-03-11T17:04:21.418Z,40.32
2023-03-11T17:07:24.681Z,40.32
2023-03-11T17:10:35.569Z,40.36
2023-03-11T17:13:37.611Z,40.35
2023-03-11T17:16:39.647Z,40.42
2023-03-11T17:19:41.723Z,40.40
2023-03-11T17:22:43.731Z,40.41
2023-03-11T17:25:45.906Z,40.45
2023-03-11T17:28:48.181Z,40.46
2023-03-11T17:31:50.282Z,40.46
2023-03-11T17:34:52.557Z,40.52
2023-03-11T17:37:54.592Z,40.53
2023-03-11T17:40:57.087Z,40.52
2023-03-11T17:43:59.255Z,40.56
2023-03-11T17:47:01.367Z,40.57
2023-03-11T17:50:05.148Z,40.59
2023-03-11T17:53:07.464Z,40.62
2023-03-11T17:56:12.095Z,40.67
2023-03-11T17:59:15.308Z,40.65
2023-03-11T18:02:18.790Z,40.67
2023-03-11T18:05:21.702Z,40.69
2023-03-11T18:08:23.772Z,40.75
2023-03-11T18:11:27.862Z,40.68
2023-03-11T18:14:30.061Z,40.69
2023-03-11T18:17:34.342Z,40.76
2023-03-11T18:20:39.701Z,40.75
2023-03-11T18:23:42.785Z,40.76
2023-03-11T18:26:44.787Z,40.81
2023-03-11T18:29:46.811Z,40.84
2023-03-11T18:32:49.442Z,40.80
2023-03-11T18:35:51.653Z,40.90
2023-03-11T18:38:55.343Z,40.91
2023-03-11T18:41:57.361Z,40.91
2023-03-11T18:45:06.751Z,40.91
2023-03-11T18:48:08.774Z,40.95
2023-03-11T18:51:12.590Z,40.97
2023-03-11T18:54:14.605Z,41.01
2023-03-11T18:57:16.624Z,41.04
2023-03-11T19:00:22.404Z,41.07
2023-03-11T19:03:24.494Z,41.07
2023-03-11T19:06:27.791Z,41.08
2023-03-11T19:09:30.225Z,41.11
2023-03-11T19:12:34.261Z,41.13
2023-03-11T19:15:40.485Z,41.12
2023-03-11T19:18:42.653Z,41.16
2023-03-11T19:21:47.559Z,41.16
2023-03-11T19:24:49.607Z,41.18
2023-03-11T19:27:52.725Z,41.19
2023-03-11T19:30:57.381Z,41.17
2023-03-11T19:33:59.636Z,41.17
2023-03-11T19:37:01.663Z,41.20
2023-03-11T19:40:03.957Z,41.20
2023-03-11T19:43:06.399Z,41.22
2023-03-11T19:46:10.777Z,41.20
2023-03-11T19:49:12.913Z,41.18
2023-03-11T19:52:15.389Z,41.20
2023-03-11T19:55:17.626Z,41.24
2023-03-11T19:58:20.863Z,41.23
2023-03-11T20:01:25.268Z,41.23
2023-03-11T20:04:27.463Z,41.26
2023-03-11T20:07:29.842Z,41.28
2023-03-11T20:10:32.297Z,41.26
2023-03-11T20:13:44.221Z,41.30
2023-03-11T20:16:46.358Z,41.35
2023-03-11T20:19:48.496Z,41.27
2023-03-11T20:22:50.535Z,41.28
2023-03-11T20:25:52.701Z,41.27
2023-03-11T20:28:57.736Z,41.24
2023-03-11T20:31:59.864Z,41.26
2023-03-11T20:35:02.026Z,41.34
2023-03-11T20:38:04.425Z,41.33
2023-03-11T20:41:08.260Z,41.34
2023-03-11T20:44:13.511Z,41.41
2023-03-11T20:47:15.877Z,41.46
2023-03-11T20:50:18.301Z,41.46
2023-03-11T20:53:20.607Z,41.46
2023-03-11T20:56:25.652Z,41.53
2023-03-11T20:59:27.953Z,41.55
2023-03-11T21:02:33.439Z,41.54
2023-03-11T21:05:37.478Z,41.57
2023-03-11T21:08:39.931Z,41.60
2023-03-11T21:11:42.452Z,41.60
2023-03-11T21:14:44.848Z,41.64
2023-03-11T21:17:47.327Z,41.63
2023-03-11T21:20:49.637Z,41.65
2023-03-11T21:23:52.143Z,41.64
2023-03-11T21:26:54.456Z,41.66
2023-03-11T21:29:58.606Z,41.67
2023-03-11T21:33:01.138Z,41.67
2023-03-11T21:36:04.493Z,41.71
2023-03-11T21:39:06.789Z,41.76
2023-03-11T21:42:09.185Z,41.80
2023-03-11T21:45:12.234Z,41.79
2023-03-11T21:48:14.786Z,41.84
2023-03-11T21:51:18.203Z,41.88
2023-03-11T21:54:20.327Z,41.91
2023-03-11T21:57:23.595Z,41.94
2023-03-11T22:00:25.788Z,41.98
2023-03-11T22:03:28.355Z,42.03
2023-03-11T22:06:33.091Z,42.04
2023-03-11T22:09:35.227Z,42.05
2023-03-11T22:12:37.290Z,42.08
2023-03-11T22:15:39.619Z,42.10
2023-03-11T22:18:41.714Z,42.13
2023-03-11T22:21:44.202Z,42.14
2023-03-11T22:24:46.358Z,42.15
2023-03-11T22:27:48.456Z,42.23
2023-03-11T22:30:50.495Z,42.19
2023-03-11T22:33:52.563Z,42.25
2023-03-11T22:36:54.663Z,42.27
2023-03-11T22:39:56.779Z,42.30
2023-03-11T22:42:58.860Z,42.29
2023-03-11T22:46:02.398Z,42.36
2023-03-11T22:49:04.671Z,42.34
2023-03-11T22:52:06.673Z,42.39
2023-03-11T22:55:09.063Z,42.39
2023-03-11T22:58:12.047Z,42.44
2023-03-11T23:01:14.487Z,42.47
2023-03-11T23:04:16.499Z,42.44
2023-03-11T23:07:18.580Z,42.45
2023-03-11T23:10:21.620Z,42.49
2023-03-11T23:13:23.764Z,42.52
2023-03-11T23:16:26.270Z,42.51
2023-03-11T23:19:28.370Z,42.55
2023-03-11T23:22:30.466Z,42.52
2023-03-11T23:25:33.658Z,42.55
2023-03-11T23:28:36.075Z,42.60
2023-03-11T23:31:38.263Z,42.61
2023-03-11T23:34:40.322Z,42.60
2023-03-11T23:37:42.617Z,42.62
2023-03-11T23:40:44.671Z,42.60
2023-03-11T23:43:47.307Z,42.64
2023-03-11T23:46:49.415Z,42.66
2023-03-11T23:49:51.444Z,42.65
2023-03-11T23:52:53.479Z,42.71
2023-03-11T23:55:55.543Z,42.68
2023-03-11T23:58:57.625Z,42.74
